Time;durP1;ratioP1;P1;durP2;ratioP2;P2;SDS_P1;SDS_P2;PMS_P1;PMS_P2;Temp;Humidity;BMP_temperature;BMP_pressure;BME280_temperature;BME280_humidity;BME280_pressure;Samples;Min_cycle;Max_cycle;Signal;HPM_P1;HPM_P2
2022/05/19 00:01:50;;;;;;;0.80;0.60;;;20.20;99.90;;;;;;5011488;28;20457;-72
2022/05/19 00:04:16;;;;;;;0.80;0.50;;;20.20;99.90;;;;;;5012743;28;20407;-73
2022/05/19 00:06:41;;;;;;;0.80;0.50;;;20.20;99.90;;;;;;5012819;28;20490;-72
2022/05/19 00:09:07;;;;;;;1.77;0.90;;;20.10;99.90;;;;;;5012340;28;20188;-72
2022/05/19 00:11:33;;;;;;;0.87;0.60;;;20.10;99.90;;;;;;5012696;28;20172;-73
2022/05/19 00:14:00;;;;;;;0.80;0.60;;;20.10;99.90;;;;;;5012653;28;20195;-73
2022/05/19 00:16:26;;;;;;;0.80;0.57;;;20.00;99.90;;;;;;5012599;28;20498;-72
2022/05/19 00:18:51;;;;;;;0.80;0.67;;;20.10;99.90;;;;;;5012198;28;20485;-72
2022/05/19 00:21:17;;;;;;;0.80;0.50;;;20.00;99.90;;;;;;5011291;28;20415;-72
2022/05/19 00:23:43;;;;;;;0.80;0.60;;;20.00;99.90;;;;;;5012448;28;20254;-73
2022/05/19 00:26:08;;;;;;;0.80;0.50;;;19.90;99.90;;;;;;5012488;28;20176;-73
2022/05/19 00:28:34;;;;;;;0.80;0.60;;;19.90;99.90;;;;;;5012111;28;20691;-72
2022/05/19 00:30:59;;;;;;;0.80;0.50;;;19.90;99.90;;;;;;5011062;28;20275;-72
2022/05/19 00:33:25;;;;;;;0.80;0.60;;;19.90;99.90;;;;;;5012223;28;20560;-73
2022/05/19 00:35:50;;;;;;;0.80;0.50;;;19.90;99.90;;;;;;5012322;28;20255;-73
2022/05/19 00:38:16;;;;;;;0.80;0.50;;;19.80;99.90;;;;;;5011959;28;20177;-72
2022/05/19 00:40:51;;;;;;;0.80;0.50;;;19.80;99.90;;;;;;5012387;28;20168;-72
2022/05/19 00:43:30;;;;;;;0.80;0.50;;;19.80;99.90;;;;;;5012327;28;20187;-73
2022/05/19 00:46:12;;;;;;;1.57;0.80;;;19.70;99.90;;;;;;5012548;28;20414;-73
2022/05/19 00:48:46;;;;;;;0.90;0.60;;;19.70;99.90;;;;;;5011882;28;20430;-73
2022/05/19 00:51:13;;;;;;;0.80;0.50;;;19.70;99.90;;;;;;5012295;28;20445;-73
2022/05/19 00:53:42;;;;;;;0.80;0.50;;;19.70;99.90;;;;;;5012093;28;20455;-73
2022/05/19 00:56:18;;;;;;;0.80;0.50;;;19.60;99.90;;;;;;5012153;28;20490;-73
2022/05/19 00:58:52;;;;;;;0.80;0.50;;;19.60;99.90;;;;;;5011816;28;20426;-73
2022/05/19 01:01:18;;;;;;;0.80;0.50;;;19.60;99.90;;;;;;5013809;28;20427;-73
2022/05/19 01:03:54;;;;;;;0.90;0.80;;;19.50;99.90;;;;;;5016003;28;20450;-72
2022/05/19 01:06:23;;;;;;;0.90;0.70;;;19.50;99.90;;;;;;5014754;28;20206;-72
2022/05/19 01:08:59;;;;;;;1.00;0.80;;;19.50;99.90;;;;;;5015638;28;20489;-72
2022/05/19 01:11:25;;;;;;;1.20;0.87;;;19.50;99.90;;;;;;5014730;28;20422;-72
2022/05/19 01:13:51;;;;;;;0.80;0.60;;;19.40;99.90;;;;;;5015808;28;20459;-72
2022/05/19 01:16:17;;;;;;;1.20;0.80;;;19.40;99.90;;;;;;5015855;28;20177;-72
2022/05/19 01:18:44;;;;;;;0.80;0.63;;;19.40;99.90;;;;;;5013054;28;20243;-72
2022/05/19 01:21:11;;;;;;;1.10;0.80;;;19.40;99.90;;;;;;5014495;28;20519;-72
2022/05/19 01:23:42;;;;;;;1.00;0.80;;;19.40;99.90;;;;;;5013127;28;20850;-72
2022/05/19 01:26:13;;;;;;;4.13;1.40;;;19.40;99.90;;;;;;5014436;28;20907;-73
2022/05/19 01:28:39;;;;;;;2.23;0.70;;;19.40;99.90;;;;;;5013995;28;20928;-73
2022/05/19 01:31:04;;;;;;;1.03;0.80;;;19.30;99.90;;;;;;5013051;28;20525;-72
2022/05/19 01:33:30;;;;;;;0.97;0.73;;;19.30;99.90;;;;;;5012873;28;20206;-72
2022/05/19 01:35:56;;;;;;;0.80;0.50;;;19.30;99.90;;;;;;5014229;28;20218;-74
2022/05/19 01:38:29;;;;;;;0.90;0.80;;;19.30;99.90;;;;;;5012673;28;20183;-72
2022/05/19 01:41:13;;;;;;;0.93;0.70;;;19.20;99.90;;;;;;5014410;28;20187;-72
2022/05/19 01:44:03;;;;;;;1.37;0.90;;;19.20;99.90;;;;;;5012875;28;20413;-72
2022/05/19 01:46:35;;;;;;;1.30;0.70;;;19.20;99.90;;;;;;5012967;28;20430;-73
2022/05/19 01:49:23;;;;;;;1.10;0.90;;;19.10;99.90;;;;;;5013712;28;20445;-72
2022/05/19 01:51:52;;;;;;;0.90;0.70;;;19.10;99.90;;;;;;5013845;28;20990;-72
2022/05/19 01:54:35;;;;;;;1.30;1.10;;;19.10;99.90;;;;;;5012535;28;20450;-73
2022/05/19 01:57:07;;;;;;;1.00;0.90;;;19.10;99.90;;;;;;5014054;28;20430;-72
2022/05/19 01:59:45;;;;;;;1.00;0.87;;;19.10;99.90;;;;;;5013750;28;20427;-72
2022/05/19 02:02:13;;;;;;;1.13;1.03;;;19.00;99.90;;;;;;5013879;28;20410;-72
2022/05/19 02:04:45;;;;;;;0.83;0.60;;;19.00;99.90;;;;;;5013656;28;20441;-72
2022/05/19 02:07:14;;;;;;;0.80;0.60;;;19.00;99.90;;;;;;5013623;28;20879;-72
2022/05/19 02:09:47;;;;;;;1.30;1.10;;;19.00;99.90;;;;;;5012519;28;20473;-72
2022/05/19 02:12:12;;;;;;;0.93;0.67;;;19.00;99.90;;;;;;5012149;28;20411;-71
2022/05/19 02:14:46;;;;;;;0.97;0.67;;;19.00;99.90;;;;;;5012537;28;20462;-72
2022/05/19 02:17:19;;;;;;;0.90;0.70;;;18.90;99.90;;;;;;4976089;28;1047558;-72
2022/05/19 02:19:51;;;;;;;0.90;0.70;;;18.90;99.90;;;;;;5014654;28;20514;-72
2022/05/19 02:22:19;;;;;;;1.00;0.70;;;18.90;99.90;;;;;;5014747;28;20404;-72
2022/05/19 02:24:52;;;;;;;1.37;0.93;;;18.90;99.90;;;;;;5014627;28;20415;-72
2022/05/19 02:27:38;;;;;;;1.10;1.00;;;18.90;99.90;;;;;;5013149;28;20451;-72
2022/05/19 02:30:09;;;;;;;0.90;0.70;;;18.90;99.90;;;;;;5003751;28;20442;-72
2022/05/19 02:32:35;;;;;;;1.03;0.73;;;18.90;99.90;;;;;;5014519;28;20474;-72
2022/05/19 02:35:02;;;;;;;0.90;0.80;;;18.90;99.90;;;;;;5014406;28;20411;-72
2022/05/19 02:37:28;;;;;;;0.80;0.50;;;18.90;99.90;;;;;;5014214;28;20851;-71
2022/05/19 02:39:53;;;;;;;0.80;0.57;;;18.90;99.90;;;;;;5014228;28;20521;-71
2022/05/19 02:42:19;;;;;;;1.10;0.73;;;18.90;99.90;;;;;;5014329;28;20438;-72
2022/05/19 02:44:44;;;;;;;1.10;1.00;;;18.90;99.90;;;;;;5013048;28;20191;-72
2022/05/19 02:47:10;;;;;;;0.90;0.70;;;18.90;99.90;;;;;;5014290;28;20180;-72
2022/05/19 02:49:35;;;;;;;1.53;0.80;;;18.90;99.90;;;;;;5013920;28;20257;-71
2022/05/19 02:52:01;;;;;;;1.53;1.07;;;18.80;99.90;;;;;;5014214;28;20183;-73
2022/05/19 02:54:26;;;;;;;1.30;1.00;;;18.80;99.90;;;;;;5013925;28;20279;-72
2022/05/19 02:56:52;;;;;;;1.20;0.90;;;18.90;99.90;;;;;;5012967;28;20165;-72
2022/05/19 02:59:17;;;;;;;1.63;0.70;;;18.80;99.90;;;;;;5013722;28;20197;-71
2022/05/19 03:01:43;;;;;;;2.30;1.57;;;18.90;99.90;;;;;;5012689;28;20191;-72
2022/05/19 03:04:08;;;;;;;0.90;0.70;;;18.90;99.90;;;;;;5013869;28;20199;-72
2022/05/19 03:06:34;;;;;;;0.90;0.80;;;18.90;99.90;;;;;;5013922;28;20185;-71
2022/05/19 03:09:00;;;;;;;2.37;1.40;;;18.90;99.90;;;;;;5013482;28;20219;-72
2022/05/19 03:11:25;;;;;;;0.80;0.60;;;18.80;99.90;;;;;;5013815;28;20184;-72
2022/05/19 03:13:51;;;;;;;0.90;0.70;;;18.90;99.90;;;;;;5013653;28;20675;-72
2022/05/19 03:16:16;;;;;;;1.10;0.70;;;18.90;99.90;;;;;;5013738;28;20239;-72
2022/05/19 03:18:42;;;;;;;0.90;0.80;;;18.90;99.90;;;;;;5013329;28;20207;-71
2022/05/19 03:21:07;;;;;;;1.27;1.17;;;18.80;99.90;;;;;;5012367;28;20669;-72
2022/05/19 03:23:33;;;;;;;1.30;1.07;;;18.80;99.90;;;;;;5011515;28;20179;-72
2022/05/19 03:25:59;;;;;;;0.90;0.80;;;18.80;99.90;;;;;;5012183;28;20172;-72
2022/05/19 03:28:25;;;;;;;1.10;0.90;;;18.80;99.90;;;;;;5013148;28;20588;-71
2022/05/19 03:30:50;;;;;;;0.90;0.70;;;18.80;99.90;;;;;;5013380;28;20585;-71
2022/05/19 03:33:16;;;;;;;1.50;0.80;;;18.80;99.90;;;;;;5013192;28;20628;-72
2022/05/19 03:35:43;;;;;;;1.10;1.00;;;18.80;99.90;;;;;;5013316;28;20165;-72
2022/05/19 03:38:09;;;;;;;1.03;0.77;;;18.70;99.90;;;;;;5013036;28;20568;-72
2022/05/19 03:40:35;;;;;;;1.30;0.80;;;18.70;99.90;;;;;;5013146;28;20461;-71
2022/05/19 03:43:00;;;;;;;1.13;1.03;;;18.70;99.90;;;;;;5013332;28;20404;-72
2022/05/19 03:45:26;;;;;;;1.00;0.90;;;18.70;99.90;;;;;;5013400;28;20172;-71
2022/05/19 03:47:52;;;;;;;0.80;0.60;;;18.70;99.90;;;;;;5012927;28;20178;-72
2022/05/19 03:50:17;;;;;;;1.50;1.10;;;18.60;99.90;;;;;;5012943;28;20192;-72
2022/05/19 03:52:43;;;;;;;1.00;0.80;;;18.60;99.90;;;;;;5013006;28;20410;-71
2022/05/19 03:55:11;;;;;;;1.10;0.80;;;18.60;99.90;;;;;;5012896;28;20175;-72
2022/05/19 03:57:37;;;;;;;1.17;0.90;;;18.60;99.90;;;;;;5012795;28;20177;-71
2022/05/19 04:00:05;;;;;;;0.90;0.80;;;18.60;99.90;;;;;;5011542;28;20423;-72
2022/05/19 04:02:30;;;;;;;6.60;1.10;;;18.60;99.90;;;;;;5012869;28;20175;-72
2022/05/19 04:04:56;;;;;;;3.47;1.30;;;18.60;99.90;;;;;;5012740;28;20411;-72
2022/05/19 04:07:22;;;;;;;1.50;1.30;;;18.60;99.90;;;;;;5011354;28;20292;-70
2022/05/19 04:09:47;;;;;;;1.20;0.83;;;18.60;99.90;;;;;;5011352;28;20483;-71
2022/05/19 04:12:17;;;;;;;2.63;1.23;;;18.60;99.90;;;;;;5011436;28;20476;-72
2022/05/19 04:14:43;;;;;;;1.20;1.00;;;18.60;99.90;;;;;;5012485;28;20228;-72
2022/05/19 04:17:08;;;;;;;1.57;1.43;;;18.70;99.90;;;;;;5012369;28;20456;-72
2022/05/19 04:19:35;;;;;;;3.53;0.97;;;18.70;99.90;;;;;;5012365;28;20281;-72
2022/05/19 04:22:01;;;;;;;1.57;1.20;;;18.70;99.90;;;;;;5012526;28;20164;-72
2022/05/19 04:24:27;;;;;;;1.70;0.87;;;18.70;99.90;;;;;;5012532;28;20407;-72
2022/05/19 04:26:53;;;;;;;1.37;1.10;;;18.80;99.90;;;;;;5012620;28;20407;-72
2022/05/19 04:29:18;;;;;;;1.57;0.90;;;18.80;99.90;;;;;;5012117;28;20434;-72
2022/05/19 04:31:44;;;;;;;3.77;1.00;;;18.80;99.90;;;;;;5012338;28;20172;-72
2022/05/19 04:34:09;;;;;;;1.20;0.80;;;18.80;99.90;;;;;;5011206;28;20192;-72
2022/05/19 04:36:35;;;;;;;0.80;0.60;;;18.80;99.90;;;;;;5010975;28;20646;-72
2022/05/19 04:39:00;;;;;;;1.37;1.07;;;18.80;99.90;;;;;;5011978;28;20598;-72
2022/05/19 04:41:26;;;;;;;1.20;1.10;;;18.90;99.90;;;;;;5011010;28;20214;-71
2022/05/19 04:43:53;;;;;;;1.10;0.80;;;18.90;99.90;;;;;;5011181;28;20184;-72
2022/05/19 04:46:18;;;;;;;1.57;0.80;;;18.90;99.90;;;;;;5012197;28;20242;-71
2022/05/19 04:48:44;;;;;;;1.30;0.80;;;18.90;99.90;;;;;;5012071;28;20936;-72
2022/05/19 04:51:09;;;;;;;0.87;0.63;;;19.00;99.90;;;;;;5010875;28;20168;-72
2022/05/19 04:53:35;;;;;;;1.47;0.90;;;19.00;99.90;;;;;;5012083;28;20192;-72
2022/05/19 04:56:00;;;;;;;1.00;0.90;;;19.00;99.90;;;;;;5010912;28;20637;-71
2022/05/19 04:58:26;;;;;;;1.00;0.90;;;19.10;99.90;;;;;;5010537;28;20165;-72
2022/05/19 05:00:52;;;;;;;1.30;1.07;;;19.10;99.90;;;;;;5012092;28;20169;-72
2022/05/19 05:03:19;;;;;;;1.90;1.70;;;19.20;99.90;;;;;;5012094;28;20165;-72
2022/05/19 05:05:45;;;;;;;1.00;0.90;;;19.20;99.90;;;;;;5012120;28;20407;-73
2022/05/19 05:08:11;;;;;;;1.37;1.27;;;19.30;99.90;;;;;;5011581;28;20411;-73
2022/05/19 05:10:37;;;;;;;1.00;0.87;;;19.40;99.90;;;;;;5012026;28;20774;-73
2022/05/19 05:13:07;;;;;;;1.73;1.27;;;19.40;99.90;;;;;;5011937;28;20228;-73
2022/05/19 05:15:33;;;;;;;0.93;0.80;;;19.60;99.90;;;;;;5011924;28;20211;-72
2022/05/19 05:17:59;;;;;;;1.30;1.17;;;19.70;99.90;;;;;;5010556;28;20861;-72
2022/05/19 05:20:24;;;;;;;1.70;1.60;;;19.70;99.90;;;;;;5011788;28;20180;-72
2022/05/19 05:22:50;;;;;;;1.50;1.13;;;19.90;99.90;;;;;;5011904;28;20243;-73
2022/05/19 05:25:16;;;;;;;1.10;0.90;;;20.00;99.90;;;;;;5011865;28;20176;-72
2022/05/19 05:27:42;;;;;;;1.00;0.90;;;20.20;99.90;;;;;;5011693;28;20175;-72
2022/05/19 05:30:09;;;;;;;1.17;1.07;;;20.30;99.90;;;;;;5011779;28;20424;-73
2022/05/19 05:32:36;;;;;;;1.27;0.90;;;20.50;99.90;;;;;;5011759;28;20403;-73
2022/05/19 05:35:02;;;;;;;1.40;1.30;;;20.60;99.90;;;;;;5011862;28;20435;-73
2022/05/19 05:37:28;;;;;;;1.10;0.90;;;20.80;99.90;;;;;;5011663;28;20404;-72
2022/05/19 05:39:53;;;;;;;1.73;1.17;;;20.90;99.90;;;;;;5011556;28;20438;-72
2022/05/19 05:42:19;;;;;;;0.90;0.80;;;21.00;99.90;;;;;;5011860;28;20169;-73
2022/05/19 05:44:45;;;;;;;1.20;0.93;;;21.10;99.90;;;;;;5010386;28;20654;-72
2022/05/19 05:47:10;;;;;;;1.20;1.10;;;21.20;99.90;;;;;;5011629;28;20172;-73
2022/05/19 05:49:37;;;;;;;1.50;1.40;;;21.30;99.90;;;;;;5014743;28;20184;-73
2022/05/19 05:52:04;;;;;;;0.90;0.70;;;21.30;99.90;;;;;;5015337;28;20247;-72
2022/05/19 05:54:29;;;;;;;1.40;1.13;;;21.40;99.90;;;;;;5013764;28;20486;-73
2022/05/19 05:56:55;;;;;;;0.83;0.60;;;21.40;99.90;;;;;;5015494;28;20794;-73
2022/05/19 05:59:20;;;;;;;1.23;1.00;;;21.40;99.90;;;;;;5014773;28;20184;-73
2022/05/19 06:01:46;;;;;;;1.00;0.70;;;21.40;99.90;;;;;;5013845;28;20653;-73
2022/05/19 06:04:11;;;;;;;0.90;0.70;;;21.40;99.90;;;;;;5014964;28;20247;-73
2022/05/19 06:06:37;;;;;;;1.00;0.90;;;21.50;99.90;;;;;;5014916;28;20199;-73
2022/05/19 06:09:03;;;;;;;1.60;1.00;;;21.60;99.90;;;;;;5014897;28;20187;-73
2022/05/19 06:11:29;;;;;;;1.10;1.00;;;21.80;99.90;;;;;;5014937;28;20183;-73
2022/05/19 06:13:55;;;;;;;1.00;0.80;;;22.10;99.90;;;;;;5014725;28;20258;-72
2022/05/19 06:16:20;;;;;;;1.00;0.80;;;22.50;99.90;;;;;;5013548;28;20415;-73
2022/05/19 06:18:46;;;;;;;0.90;0.70;;;23.00;99.90;;;;;;5014341;28;20204;-72
2022/05/19 06:21:11;;;;;;;1.00;0.90;;;23.30;99.90;;;;;;5013419;28;20622;-74
2022/05/19 06:23:37;;;;;;;1.20;0.90;;;23.70;99.90;;;;;;5014847;28;20183;-72
2022/05/19 06:26:03;;;;;;;1.13;1.03;;;24.20;99.90;;;;;;5013398;28;20168;-72
2022/05/19 06:28:29;;;;;;;1.10;0.77;;;24.60;99.90;;;;;;5014205;28;20176;-72
2022/05/19 06:30:55;;;;;;;1.30;1.13;;;25.20;99.90;;;;;;5014489;28;20759;-72
2022/05/19 06:33:22;;;;;;;1.33;1.23;;;25.70;99.90;;;;;;5013076;28;20604;-72
2022/05/19 06:35:48;;;;;;;1.07;0.97;;;26.10;99.90;;;;;;5014448;28;20414;-72
2022/05/19 06:38:14;;;;;;;1.43;1.00;;;26.70;99.90;;;;;;5014093;28;20403;-72
2022/05/19 06:40:40;;;;;;;1.70;1.47;;;27.00;99.90;;;;;;5014379;28;20164;-72
2022/05/19 06:43:10;;;;;;;1.50;1.30;;;27.30;99.90;;;;;;5014330;28;20408;-72
2022/05/19 06:45:36;;;;;;;1.93;1.53;;;27.60;99.90;;;;;;5014031;28;20234;-72
2022/05/19 06:48:02;;;;;;;1.40;1.30;;;27.80;99.90;;;;;;5013891;28;20908;-72
2022/05/19 06:50:27;;;;;;;1.20;1.03;;;28.00;99.90;;;;;;5014088;28;20199;-72
2022/05/19 06:53:02;;;;;;;2.07;1.87;;;28.10;99.90;;;;;;5014068;28;20485;-72
2022/05/19 06:55:28;;;;;;;1.50;1.30;;;28.20;99.90;;;;;;5014061;28;20530;-74
2022/05/19 06:57:54;;;;;;;1.97;1.73;;;28.20;99.90;;;;;;5011856;28;20445;-72
2022/05/19 07:00:21;;;;;;;1.57;1.47;;;28.20;99.90;;;;;;5013290;28;20423;-72
2022/05/19 07:02:50;;;;;;;2.23;1.50;;;28.40;99.90;;;;;;5014116;28;20164;-72
2022/05/19 07:05:17;;;;;;;1.43;1.33;;;28.60;99.90;;;;;;5013791;28;20406;-73
2022/05/19 07:07:46;;;;;;;1.40;1.30;;;28.90;99.90;;;;;;5013576;28;20404;-72
2022/05/19 07:10:14;;;;;;;1.50;1.23;;;29.30;99.90;;;;;;5013696;28;20498;-73
2022/05/19 07:12:40;;;;;;;1.53;1.43;;;29.70;99.90;;;;;;5012366;28;20403;-73
2022/05/19 07:15:06;;;;;;;1.20;1.10;;;30.40;99.90;;;;;;5013691;28;20404;-73
2022/05/19 07:17:32;;;;;;;1.87;1.30;;;30.90;99.40;;;;;;5013530;28;20184;-73
2022/05/19 07:22:41;;;;;;;1.33;1.23;;;32.10;94.70;;;;;;5013695;28;20186;-73
2022/05/19 07:25:08;;;;;;;2.30;1.30;;;32.50;91.70;;;;;;5013483;28;20505;-73
2022/05/19 07:27:34;;;;;;;2.40;1.17;;;33.00;90.10;;;;;;5013132;28;20192;-73
2022/05/19 07:30:01;;;;;;;1.77;1.67;;;33.40;86.90;;;;;;5013253;28;20426;-73
2022/05/19 07:32:27;;;;;;;1.67;1.30;;;33.50;83.10;;;;;;5012116;28;20407;-73
2022/05/19 07:34:56;;;;;;;1.37;1.27;;;33.30;80.50;;;;;;5013029;28;20525;-72
2022/05/19 07:37:22;;;;;;;1.70;1.60;;;33.10;78.30;;;;;;5013311;28;20404;-73
2022/05/19 07:39:48;;;;;;;2.80;2.20;;;32.90;76.10;;;;;;5011690;28;20419;-74
2022/05/19 07:42:14;;;;;;;1.97;1.87;;;32.60;75.40;;;;;;5013090;28;20421;-72
2022/05/19 07:44:41;;;;;;;1.70;1.60;;;32.20;75.30;;;;;;5013421;28;20637;-73
2022/05/19 07:47:06;;;;;;;1.90;1.40;;;31.90;75.50;;;;;;5013221;28;20164;-72
2022/05/19 07:49:32;;;;;;;2.47;1.70;;;31.60;75.80;;;;;;5012865;28;21006;-73
2022/05/19 07:51:58;;;;;;;2.70;2.50;;;31.20;76.00;;;;;;5013220;28;20708;-73
2022/05/19 07:54:27;;;;;;;1.50;1.40;;;31.10;76.50;;;;;;5012961;28;20191;-72
2022/05/19 07:56:54;;;;;;;1.50;1.40;;;30.90;77.30;;;;;;5013310;28;20211;-73
2022/05/19 07:59:20;;;;;;;2.40;1.80;;;30.80;78.70;;;;;;5012712;28;20464;-72
2022/05/19 08:01:47;;;;;;;1.30;1.10;;;30.60;79.70;;;;;;5012846;28;20501;-73
2022/05/19 08:04:14;;;;;;;1.83;1.50;;;30.50;80.60;;;;;;5012787;28;20408;-73
2022/05/19 08:06:40;;;;;;;1.87;1.70;;;30.60;81.50;;;;;;5012763;28;20408;-72
2022/05/19 08:11:51;;;;;;;1.20;1.10;;;31.60;87.10;;;;;;5012991;28;20918;-73
2022/05/19 08:17:03;;;;;;;1.37;1.27;;;35.40;84.50;;;;;;5012806;28;20770;-74
2022/05/19 08:19:29;;;;;;;1.43;1.33;;;37.60;76.80;;;;;;5011917;28;20951;-74
2022/05/19 08:21:55;;;;;;;2.70;1.30;;;39.20;69.60;;;;;;5012378;28;20407;-74
2022/05/19 08:24:24;;;;;;;2.00;1.90;;;41.00;61.70;;;;;;5012403;28;20833;-74
2022/05/19 08:26:52;;;;;;;1.87;1.77;;;42.70;55.10;;;;;;5012477;28;20541;-74
2022/05/19 08:29:19;;;;;;;2.37;2.07;;;44.00;50.50;;;;;;5012171;28;20924;-74
2022/05/19 08:31:46;;;;;;;2.00;1.80;;;45.00;45.40;;;;;;5012168;28;20478;-74
2022/05/19 08:34:13;;;;;;;1.70;1.60;;;45.80;42.60;;;;;;5011879;28;20977;-74
2022/05/19 08:36:40;;;;;;;1.60;1.50;;;45.70;40.30;;;;;;5012269;28;20382;-74
2022/05/19 08:39:06;;;;;;;1.50;1.40;;;45.50;39.60;;;;;;5012028;28;20389;-74
2022/05/19 08:41:43;;;;;;;1.40;1.30;;;45.10;39.30;;;;;;5010899;28;20991;-74
2022/05/19 08:44:26;;;;;;;1.30;1.20;;;44.30;39.20;;;;;;5012260;28;20174;-73
2022/05/19 08:46:53;;;;;;;1.53;1.43;;;43.50;39.30;;;;;;5012219;28;20478;-74
2022/05/19 08:49:44;;;;;;;1.70;1.60;;;42.40;39.30;;;;;;5011970;28;20413;-71
2022/05/19 08:52:17;;;;;;;1.53;1.43;;;41.60;39.90;;;;;;5012152;28;20396;-72
2022/05/19 08:54:45;;;;;;;1.80;1.70;;;41.80;40.80;;;;;;5012132;28;20945;-71
2022/05/19 08:57:40;;;;;;;2.37;2.27;;;42.20;40.50;;;;;;5012145;28;20986;-71
2022/05/19 09:00:17;;;;;;;1.60;1.50;;;43.10;40.20;;;;;;5006211;28;20435;-72
2022/05/19 09:03:05;;;;;;;2.17;2.07;;;44.30;39.80;;;;;;5012219;28;20438;-72
2022/05/19 09:05:46;;;;;;;2.93;2.13;;;45.80;38.60;;;;;;5010788;28;20458;-72
2022/05/19 09:08:20;;;;;;;2.10;2.00;;;47.00;36.60;;;;;;5011836;28;20460;-72
2022/05/19 09:10:52;;;;;;;2.03;1.93;;;48.00;35.40;;;;;;5012072;28;20422;-72
2022/05/19 09:13:31;;;;;;;2.43;2.33;;;49.00;34.30;;;;;;5012068;28;20966;-72
2022/05/19 09:15:59;;;;;;;1.60;1.50;;;49.70;32.90;;;;;;5012057;28;20407;-72
2022/05/19 09:18:38;;;;;;;1.90;1.80;;;50.00;32.30;;;;;;5010342;28;20427;-72
2022/05/19 09:21:05;;;;;;;1.73;1.63;;;49.90;31.70;;;;;;5012117;28;20386;-72
2022/05/19 09:23:32;;;;;;;1.97;1.87;;;49.90;31.20;;;;;;5015471;28;20403;-72
2022/05/19 09:26:22;;;;;;;1.90;1.80;;;50.40;31.00;;;;;;5014382;28;20386;-72
2022/05/19 09:28:57;;;;;;;2.77;2.57;;;50.90;30.60;;;;;;5015379;28;20477;-73
2022/05/19 09:31:38;;;;;;;1.80;1.70;;;51.40;29.80;;;;;;5014550;28;20971;-72
2022/05/19 09:34:06;;;;;;;2.23;2.13;;;51.80;29.60;;;;;;5015553;28;20496;-71
2022/05/19 09:36:38;;;;;;;2.30;2.20;;;52.20;29.40;;;;;;5015937;28;20374;-72
2022/05/19 09:39:05;;;;;;;1.97;1.87;;;52.50;28.90;;;;;;5015459;28;20454;-73
2022/05/19 09:41:36;;;;;;;1.77;1.67;;;53.10;28.80;;;;;;5015486;28;20402;-71
2022/05/19 09:44:04;;;;;;;2.10;2.00;;;53.50;28.70;;;;;;5014220;28;20411;-72
2022/05/19 09:46:47;;;;;;;2.63;2.53;;;53.60;28.00;;;;;;5015389;28;20407;-72
2022/05/19 09:49:31;;;;;;;1.80;1.70;;;53.20;27.80;;;;;;5014938;28;20422;-72
2022/05/19 09:52:03;;;;;;;2.00;1.90;;;53.30;27.70;;;;;;5015151;28;20445;-72
2022/05/19 09:54:31;;;;;;;1.80;1.70;;;53.60;27.30;;;;;;5015034;28;20433;-72
2022/05/19 09:57:24;;;;;;;2.30;2.20;;;53.90;27.50;;;;;;5015174;28;20461;-72
2022/05/19 09:59:52;;;;;;;2.33;2.23;;;53.40;27.00;;;;;;5014291;28;20944;-72
2022/05/19 10:02:24;;;;;;;1.90;1.80;;;52.20;26.60;;;;;;5015210;28;20859;-71
2022/05/19 10:04:56;;;;;;;2.77;2.57;;;51.20;26.60;;;;;;5014937;28;20403;-72
2022/05/19 10:07:35;;;;;;;1.60;1.50;;;50.70;26.90;;;;;;5015029;28;20411;-72
2022/05/19 10:10:01;;;;;;;1.87;1.77;;;50.60;27.20;;;;;;5014529;28;20481;-72
2022/05/19 10:12:32;;;;;;;2.80;2.60;;;50.70;27.30;;;;;;5014944;28;20411;-72
2022/05/19 10:15:04;;;;;;;1.70;1.60;;;50.90;27.50;;;;;;5014728;28;20677;-70
2022/05/19 10:18:03;;;;;;;1.70;1.60;;;51.00;27.40;;;;;;5014672;28;20437;-70
2022/05/19 10:20:35;;;;;;;2.03;1.93;;;51.00;27.40;;;;;;5014657;28;20393;-70
2022/05/19 10:23:19;;;;;;;2.30;2.10;;;50.70;27.40;;;;;;5014744;28;20377;-71
2022/05/19 10:25:59;;;;;;;2.00;1.90;;;49.90;27.30;;;;;;5014580;28;20397;-70
2022/05/19 10:31:35;;;;;;;1.60;1.50;;;48.10;28.20;;;;;;5014721;28;20369;-70
2022/05/19 10:34:24;;;;;;;3.70;3.20;;;47.10;28.80;;;;;;5014268;28;20815;-71
2022/05/19 10:37:10;;;;;;;1.50;1.40;;;46.60;29.20;;;;;;5014503;28;20370;-70
2022/05/19 10:39:58;;;;;;;1.77;1.67;;;46.00;29.40;;;;;;5012823;28;20496;-71
2022/05/19 10:42:41;;;;;;;2.20;2.00;;;46.20;29.70;;;;;;5014455;28;20366;-70
2022/05/19 10:45:18;;;;;;;1.83;1.73;;;47.00;29.80;;;;;;5014304;28;20481;-71
2022/05/19 10:48:21;;;;;;;2.00;1.90;;;47.30;29.30;;;;;;5014110;28;20776;-71
2022/05/19 10:51:11;;;;;;;2.10;1.90;;;47.80;29.00;;;;;;5014228;28;20416;-71
2022/05/19 10:54:30;;;;;;;1.70;1.60;;;48.80;28.80;;;;;;5013992;28;20491;-71
2022/05/19 10:57:14;;;;;;;2.20;2.10;;;49.90;28.60;;;;;;4953382;29;20496;-71
2022/05/19 11:00:12;;;;;;;2.10;2.00;;;51.80;28.10;;;;;;4937096;29;20433;-71
2022/05/19 11:03:12;;;;;;;2.37;2.27;;;52.90;27.30;;;;;;4948978;28;20415;-71
2022/05/19 11:05:49;;;;;;;1.90;1.80;;;53.90;26.70;;;;;;5014065;28;20449;-71
2022/05/19 11:08:15;;;;;;;2.30;2.20;;;54.60;26.00;;;;;;5013645;28;20418;-70
2022/05/19 11:11:02;;;;;;;2.43;2.23;;;54.90;25.70;;;;;;5013920;28;20904;-71
2022/05/19 11:13:35;;;;;;;2.10;2.00;;;54.00;25.20;;;;;;5013768;28;20188;-71
2022/05/19 11:16:18;;;;;;;2.27;2.17;;;52.70;25.50;;;;;;5013965;28;20922;-70
2022/05/19 11:19:17;;;;;;;2.27;2.07;;;51.20;26.40;;;;;;5011980;28;20451;-71
2022/05/19 11:22:22;;;;;;;3.23;2.90;;;49.20;26.60;;;;;;5013666;28;20498;-71
2022/05/19 11:27:50;;;;;;;2.20;2.10;;;44.90;28.90;;;;;;5013771;28;20420;-70
2022/05/19 11:30:21;;;;;;;2.10;1.90;;;43.10;29.80;;;;;;5013722;28;20426;-70
2022/05/19 11:32:57;;;;;;;1.93;1.83;;;41.80;30.80;;;;;;5012139;28;20390;-70
2022/05/19 11:35:28;;;;;;;1.70;1.60;;;40.80;32.40;;;;;;5013325;28;20453;-70
2022/05/19 11:38:19;;;;;;;2.00;1.80;;;40.50;33.30;;;;;;5013411;28;20439;-70
2022/05/19 11:41:13;;;;;;;1.53;1.43;;;40.30;34.20;;;;;;5013491;28;20462;-70
2022/05/19 11:43:53;;;;;;;1.93;1.83;;;40.20;34.10;;;;;;5013099;28;20989;-69
2022/05/19 11:46:45;;;;;;;2.83;1.60;;;39.90;34.40;;;;;;5011586;28;20426;-69
2022/05/19 11:55:32;;;;;;;1.80;1.70;;;42.20;35.20;;;;;;5013156;28;20505;-73
2022/05/19 11:58:04;;;;;;;1.80;1.70;;;44.40;33.00;;;;;;5011837;28;20397;-70
2022/05/19 12:00:40;;;;;;;1.60;1.50;;;45.80;31.10;;;;;;5012721;28;20506;-70
2022/05/19 12:03:17;;;;;;;1.90;1.80;;;47.10;30.60;;;;;;5012981;28;20394;-70
2022/05/19 12:05:56;;;;;;;2.03;1.93;;;48.10;30.00;;;;;;5012993;28;20505;-70
2022/05/19 12:09:00;;;;;;;1.67;1.57;;;49.10;29.60;;;;;;5012720;28;20476;-70
2022/05/19 12:11:29;;;;;;;2.00;1.90;;;49.90;29.00;;;;;;4982185;28;20397;-71
2022/05/19 12:14:35;;;;;;;1.90;1.80;;;51.00;28.80;;;;;;5012670;28;20589;-70
2022/05/19 12:17:00;;;;;;;2.30;2.20;;;52.30;28.40;;;;;;4952257;28;21010;-71
2022/05/19 12:19:35;;;;;;;2.00;1.90;;;53.40;27.90;;;;;;4951856;29;20525;-71
2022/05/19 12:22:11;;;;;;;2.03;1.93;;;54.50;27.60;;;;;;4984511;28;20258;-71
2022/05/19 12:24:50;;;;;;;2.50;2.40;;;55.50;27.30;;;;;;5012743;28;20952;-72
2022/05/19 12:27:25;;;;;;;2.30;2.20;;;55.80;26.70;;;;;;5012661;28;20450;-71
2022/05/19 12:29:58;;;;;;;2.40;2.20;;;56.10;26.60;;;;;;5011100;28;20469;-71
2022/05/19 12:32:33;;;;;;;2.50;2.30;;;56.00;26.30;;;;;;5012752;28;20463;-71
2022/05/19 12:35:15;;;;;;;2.07;1.97;;;54.70;26.10;;;;;;5011122;28;20462;-71
2022/05/19 12:37:51;;;;;;;2.50;2.33;;;53.40;26.60;;;;;;5012691;28;20403;-71
2022/05/19 12:40:22;;;;;;;1.83;1.73;;;53.40;27.00;;;;;;5012186;28;20513;-71
2022/05/19 12:42:49;;;;;;;2.20;2.10;;;53.70;27.10;;;;;;5012353;28;20439;-71
2022/05/19 12:45:15;;;;;;;2.17;1.97;;;54.00;27.00;;;;;;5012454;28;20461;-71
2022/05/19 12:47:59;;;;;;;2.20;2.10;;;53.90;26.60;;;;;;5012334;28;20411;-71
2022/05/19 12:50:51;;;;;;;2.33;2.23;;;53.40;26.70;;;;;;5011984;28;20210;-71
2022/05/19 12:53:23;;;;;;;2.33;2.23;;;53.40;26.80;;;;;;5009078;28;20461;-71
2022/05/19 12:55:53;;;;;;;2.40;2.30;;;52.90;26.90;;;;;;5013124;28;20403;-71
2022/05/19 12:58:33;;;;;;;2.63;2.53;;;52.30;27.30;;;;;;5016038;28;20411;-71
2022/05/19 13:01:09;;;;;;;2.40;2.23;;;51.60;27.70;;;;;;5016149;28;20385;-71
2022/05/19 13:03:36;;;;;;;2.00;1.90;;;50.70;27.60;;;;;;5015425;28;20485;-71
2022/05/19 13:06:07;;;;;;;1.67;1.57;;;49.50;28.10;;;;;;5016117;28;20484;-71
2022/05/19 13:08:37;;;;;;;1.80;1.70;;;48.00;28.30;;;;;;5015954;28;20410;-71
2022/05/19 13:11:09;;;;;;;2.00;1.90;;;46.40;28.80;;;;;;5016019;28;20738;-69
2022/05/19 13:13:50;;;;;;;1.90;1.70;;;44.80;29.50;;;;;;5016008;28;20424;-71
2022/05/19 13:16:24;;;;;;;1.57;1.47;;;43.20;30.30;;;;;;5016114;28;20378;-70
2022/05/19 13:18:53;;;;;;;1.60;1.40;;;41.80;31.50;;;;;;5015757;28;20420;-71
2022/05/19 13:21:31;;;;;;;5.63;2.60;;;40.40;33.80;;;;;;5016117;28;20453;-70
2022/05/19 13:24:02;;;;;;;1.70;1.47;;;38.80;37.80;;;;;;5015847;28;20802;-69
2022/05/19 13:26:32;;;;;;;1.30;1.20;;;37.00;40.60;;;;;;5015729;28;20407;-69
2022/05/19 13:32:01;;;;;;;1.10;1.00;;;33.80;45.20;;;;;;5015352;28;20446;-68